Time;durP1;ratioP1;P1;durP2;ratioP2;P2;SDS_P1;SDS_P2;PMS_P1;PMS_P2;Temp;Humidity;BMP_temperature;BMP_pressure;BME280_temperature;BME280_humidity;BME280_pressure;Samples;Min_cycle;Max_cycle;Signal;HPM_P1;HPM_P2
2021/12/10 00:02:12;;;;;;;2.90;1.15;;;4.30;87.80;;;;;;6251270;28;20099;-80
2021/12/10 00:05:22;;;;;;;1.98;1.10;;;4.40;88.70;;;;;;6251460;28;20128;-79
2021/12/10 00:08:28;;;;;;;7.03;1.10;;;4.30;89.10;;;;;;6252239;28;20056;-79
2021/12/10 00:11:33;;;;;;;10.48;1.52;;;4.30;89.30;;;;;;6251860;28;20056;-80
2021/12/10 00:14:37;;;;;;;4.13;1.10;;;4.30;89.30;;;;;;6252151;28;20067;-79
2021/12/10 00:17:39;;;;;;;4.70;1.25;;;4.20;89.30;;;;;;6251768;28;20049;-80
2021/12/10 00:20:43;;;;;;;4.30;1.20;;;4.10;89.80;;;;;;6251744;28;20052;-80
2021/12/10 00:23:49;;;;;;;10.73;1.50;;;4.10;89.80;;;;;;6251429;28;20072;-80
2021/12/10 00:26:52;;;;;;;4.50;1.10;;;4.00;90.00;;;;;;6251832;28;20054;-79
2021/12/10 00:30:02;;;;;;;8.52;1.70;;;3.90;90.20;;;;;;6252012;28;20077;-80
2021/12/10 00:33:13;;;;;;;4.45;1.10;;;3.80;90.20;;;;;;6251743;28;20128;-80
2021/12/10 00:36:16;;;;;;;3.92;2.85;;;3.80;90.30;;;;;;6250875;28;20122;-80
2021/12/10 00:39:25;;;;;;;6.32;1.75;;;3.60;90.40;;;;;;6252528;28;20073;-80
2021/12/10 00:42:29;;;;;;;10.48;2.00;;;3.60;90.40;;;;;;6251839;28;20041;-79
2021/12/10 00:45:31;;;;;;;5.60;1.30;;;3.50;90.50;;;;;;6250128;28;20501;-79
2021/12/10 00:48:33;;;;;;;8.05;2.15;;;3.30;90.50;;;;;;6250966;28;20049;-80
2021/12/10 00:51:38;;;;;;;9.82;1.95;;;3.20;90.60;;;;;;6251398;28;20113;-79
2021/12/10 00:54:41;;;;;;;7.28;1.73;;;3.20;90.80;;;;;;6252038;28;20143;-80
2021/12/10 00:57:43;;;;;;;7.85;1.63;;;3.10;91.00;;;;;;6251799;28;20045;-80
2021/12/10 01:00:50;;;;;;;6.55;1.38;;;3.10;91.00;;;;;;6251717;28;20042;-79
2021/12/10 01:03:57;;;;;;;12.40;1.40;;;3.10;91.10;;;;;;6251600;28;20060;-80
2021/12/10 01:07:02;;;;;;;3.33;1.40;;;3.00;91.10;;;;;;6252006;28;20088;-79
2021/12/10 01:10:09;;;;;;;4.28;1.20;;;3.00;91.10;;;;;;6251697;28;20077;-79
2021/12/10 01:13:15;;;;;;;4.88;1.38;;;2.90;91.00;;;;;;6250774;28;20049;-80
2021/12/10 01:26:37;;;;;;;4.88;1.27;;;2.30;91.30;;;;;;6254908;28;20045;-78
2021/12/10 01:29:43;;;;;;;3.72;1.35;;;2.30;91.40;;;;;;6253700;28;20454;-79
2021/12/10 01:32:48;;;;;;;6.65;2.42;;;2.20;91.40;;;;;;6255402;28;20049;-79
2021/12/10 01:35:54;;;;;;;2.03;0.77;;;2.20;91.30;;;;;;6254858;28;20389;-81
2021/12/10 01:38:57;;;;;;;12.57;2.08;;;2.10;91.30;;;;;;6255566;28;20049;-79
2021/12/10 01:42:12;;;;;;;7.45;1.45;;;2.10;91.40;;;;;;6254735;28;20519;-79
2021/12/10 01:45:21;;;;;;;2.65;1.20;;;2.00;91.30;;;;;;6254733;28;20056;-79
2021/12/10 01:48:26;;;;;;;7.03;1.13;;;2.00;91.50;;;;;;6254789;28;20099;-79
2021/12/10 01:51:32;;;;;;;12.88;2.15;;;1.90;91.50;;;;;;6255292;28;20054;-79
2021/12/10 01:54:41;;;;;;;4.80;1.38;;;1.80;91.50;;;;;;6254666;28;20416;-78
2021/12/10 01:57:43;;;;;;;4.35;1.50;;;1.70;91.50;;;;;;6255172;28;20053;-79
2021/12/10 02:00:48;;;;;;;9.63;1.67;;;1.50;91.80;;;;;;6254315;28;20204;-79
2021/12/10 02:03:53;;;;;;;4.40;1.73;;;1.50;91.80;;;;;;6254629;28;20391;-79
2021/12/10 02:06:56;;;;;;;3.65;1.13;;;1.60;91.90;;;;;;6255255;28;20055;-79
2021/12/10 02:09:59;;;;;;;7.03;2.90;;;1.60;91.90;;;;;;6254218;28;20095;-79
2021/12/10 02:13:02;;;;;;;9.45;2.13;;;1.60;92.00;;;;;;6254207;28;20052;-79
2021/12/10 02:16:04;;;;;;;9.05;1.42;;;1.60;91.80;;;;;;6254174;28;20049;-79
2021/12/10 02:19:08;;;;;;;3.90;1.58;;;1.50;91.90;;;;;;6254913;28;20085;-79
2021/12/10 02:22:11;;;;;;;7.15;1.52;;;1.50;91.90;;;;;;6253501;28;20506;-80
2021/12/10 02:25:15;;;;;;;4.97;1.50;;;1.50;91.80;;;;;;6254001;28;20048;-79
2021/12/10 02:28:17;;;;;;;8.27;1.25;;;1.50;91.70;;;;;;6254266;28;20049;-79
2021/12/10 02:31:19;;;;;;;8.73;1.60;;;1.50;91.80;;;;;;6253040;28;20411;-80
2021/12/10 02:34:22;;;;;;;7.95;1.02;;;1.40;91.60;;;;;;6254108;28;20518;-80
2021/12/10 02:37:25;;;;;;;3.38;1.40;;;1.40;91.60;;;;;;6252235;28;20114;-81
2021/12/10 02:40:29;;;;;;;9.25;1.23;;;1.40;91.60;;;;;;6259871;28;20045;-79
2021/12/10 02:43:31;;;;;;;5.90;1.73;;;1.40;91.70;;;;;;6265603;28;20592;-79
2021/12/10 02:46:33;;;;;;;8.32;1.38;;;1.40;91.80;;;;;;6256761;28;20055;-80
2021/12/10 02:49:35;;;;;;;8.82;2.97;;;1.40;91.70;;;;;;6252477;28;20056;-79
2021/12/10 02:52:38;;;;;;;11.43;1.73;;;1.40;91.80;;;;;;6252060;28;20056;-79
2021/12/10 02:55:41;;;;;;;7.85;2.25;;;1.40;91.80;;;;;;6251883;28;20100;-79
2021/12/10 02:58:44;;;;;;;3.30;1.45;;;1.40;92.00;;;;;;6252742;28;20057;-79
2021/12/10 03:01:49;;;;;;;5.00;0.95;;;1.40;92.00;;;;;;6252539;28;20045;-80
2021/12/10 03:04:51;;;;;;;4.85;1.45;;;1.40;92.00;;;;;;6251308;28;20105;-80
2021/12/10 03:07:54;;;;;;;4.15;1.00;;;1.30;92.10;;;;;;6251953;28;20458;-79
2021/12/10 03:10:56;;;;;;;15.23;2.15;;;1.30;92.20;;;;;;6252526;28;20136;-78
2021/12/10 03:14:01;;;;;;;11.68;1.73;;;1.30;92.30;;;;;;6251769;28;20041;-79
2021/12/10 03:17:08;;;;;;;1.63;0.90;;;1.20;92.30;;;;;;6251114;28;20063;-80
2021/12/10 03:20:14;;;;;;;5.53;1.50;;;1.20;92.30;;;;;;6251761;28;20052;-80
2021/12/10 03:23:17;;;;;;;10.43;1.83;;;1.10;92.50;;;;;;6252613;28;20056;-80
2021/12/10 03:26:22;;;;;;;10.95;1.75;;;1.10;92.60;;;;;;6253470;28;20115;-78
2021/12/10 03:29:27;;;;;;;3.33;1.33;;;1.10;92.60;;;;;;6252162;28;20049;-79
2021/12/10 03:32:32;;;;;;;4.97;1.55;;;1.10;92.60;;;;;;6252718;28;20049;-80
2021/12/10 03:35:40;;;;;;;6.43;1.40;;;1.10;92.60;;;;;;6251514;28;20045;-80
2021/12/10 03:38:43;;;;;;;3.95;1.02;;;1.10;92.50;;;;;;6252843;28;20055;-80
2021/12/10 03:41:46;;;;;;;6.85;1.20;;;1.20;92.60;;;;;;6252000;28;20419;-79
2021/12/10 03:44:49;;;;;;;6.93;1.27;;;1.20;92.60;;;;;;6252269;28;20136;-80
2021/12/10 03:47:50;;;;;;;4.10;1.27;;;1.30;92.60;;;;;;6251809;28;20139;-79
2021/12/10 03:50:54;;;;;;;3.53;1.17;;;1.30;92.50;;;;;;6252031;28;20053;-80
2021/12/10 03:53:58;;;;;;;4.90;1.30;;;1.40;92.50;;;;;;6250669;28;20046;-79
2021/12/10 03:56:59;;;;;;;2.97;1.05;;;1.40;92.40;;;;;;6250979;28;20049;-79
2021/12/10 04:00:01;;;;;;;4.35;1.70;;;1.40;92.40;;;;;;6251079;28;20046;-79
2021/12/10 04:03:08;;;;;;;3.50;1.30;;;1.40;92.30;;;;;;6251059;28;20053;-80
2021/12/10 04:06:11;;;;;;;5.13;1.40;;;1.40;92.20;;;;;;6271615;22;20128;-81
2021/12/10 04:09:14;;;;;;;3.10;1.65;;;1.30;92.30;;;;;;6225011;28;20046;-78
2021/12/10 04:12:17;;;;;;;6.13;1.30;;;1.30;92.20;;;;;;6225018;28;20046;-78
2021/12/10 04:15:22;;;;;;;5.18;1.27;;;1.20;92.20;;;;;;6224981;28;20479;-78
2021/12/10 04:18:24;;;;;;;4.43;1.05;;;1.10;92.10;;;;;;6225262;28;20129;-78
2021/12/10 04:21:27;;;;;;;8.75;1.85;;;1.10;92.40;;;;;;6224800;28;20054;-78
2021/12/10 04:24:32;;;;;;;9.23;2.47;;;1.10;92.50;;;;;;6225548;28;20121;-78
2021/12/10 04:27:35;;;;;;;6.30;1.27;;;1.10;92.50;;;;;;6225216;28;20053;-78
2021/12/10 04:30:40;;;;;;;3.90;1.27;;;1.10;92.50;;;;;;6225807;28;20522;-78
2021/12/10 04:33:42;;;;;;;4.65;1.02;;;1.10;92.50;;;;;;6225232;28;20132;-78
2021/12/10 04:36:44;;;;;;;4.10;0.88;;;1.20;92.60;;;;;;6224508;28;20058;-78
2021/12/10 04:39:48;;;;;;;6.32;1.10;;;1.20;92.50;;;;;;6225232;28;20124;-78
2021/12/10 04:42:51;;;;;;;6.68;1.52;;;1.30;92.80;;;;;;6225160;28;20056;-78
2021/12/10 04:45:55;;;;;;;1.85;0.95;;;1.30;92.40;;;;;;6225221;28;20667;-79
2021/12/10 04:48:59;;;;;;;2.33;1.10;;;1.30;92.30;;;;;;6224686;28;20045;-78
2021/12/10 04:52:01;;;;;;;5.18;1.30;;;1.30;92.40;;;;;;6225181;28;20042;-79
2021/12/10 04:55:08;;;;;;;3.40;1.10;;;1.30;92.40;;;;;;6225341;28;20049;-78
2021/12/10 04:58:11;;;;;;;9.43;1.27;;;1.40;92.50;;;;;;6225067;28;20414;-78
2021/12/10 05:01:12;;;;;;;2.67;1.40;;;1.40;92.40;;;;;;6230120;28;20549;-78
2021/12/10 05:04:16;;;;;;;4.35;1.23;;;1.40;92.40;;;;;;6228833;28;20046;-78
2021/12/10 05:07:18;;;;;;;3.33;1.05;;;1.40;92.40;;;;;;6228927;28;20046;-78
2021/12/10 05:10:22;;;;;;;6.40;1.33;;;1.50;92.40;;;;;;6228495;28;20520;-78
2021/12/10 05:13:24;;;;;;;13.63;2.00;;;1.50;92.40;;;;;;6227773;28;20046;-78
2021/12/10 05:16:27;;;;;;;4.50;1.20;;;1.50;92.30;;;;;;6228404;28;20041;-79
2021/12/10 05:19:28;;;;;;;5.10;1.25;;;1.50;92.20;;;;;;6229633;28;20054;-78
2021/12/10 05:22:30;;;;;;;3.67;0.90;;;1.50;92.20;;;;;;6228968;28;20050;-78
2021/12/10 05:25:34;;;;;;;7.18;1.65;;;1.50;92.20;;;;;;6231765;28;20065;-80
2021/12/10 05:28:36;;;;;;;7.40;1.98;;;1.50;92.30;;;;;;6232314;28;20042;-78
2021/12/10 05:31:42;;;;;;;5.63;1.25;;;1.50;92.20;;;;;;6227950;28;20504;-78
2021/12/10 05:34:46;;;;;;;2.92;1.10;;;1.60;92.10;;;;;;6227899;28;20483;-78
2021/12/10 05:37:48;;;;;;;5.63;0.75;;;1.70;92.10;;;;;;6228286;28;20074;-78
2021/12/10 05:40:54;;;;;;;4.38;1.05;;;1.70;92.00;;;;;;6227973;28;20571;-78
2021/12/10 05:43:55;;;;;;;1.50;0.95;;;1.80;91.80;;;;;;6228701;28;20049;-78
2021/12/10 05:46:59;;;;;;;5.82;1.38;;;1.90;91.80;;;;;;6227689;28;20054;-78
2021/12/10 05:50:01;;;;;;;4.88;1.35;;;1.90;91.70;;;;;;6227589;28;20077;-78
2021/12/10 05:53:04;;;;;;;2.92;0.70;;;2.00;91.60;;;;;;6229138;28;20064;-78
2021/12/10 05:56:09;;;;;;;6.18;1.38;;;2.10;91.20;;;;;;6227969;28;20125;-78
2021/12/10 05:59:11;;;;;;;4.43;1.48;;;2.10;91.50;;;;;;6227992;28;20050;-78
2021/12/10 06:02:13;;;;;;;1.95;0.70;;;2.20;91.10;;;;;;6227885;28;20113;-78
2021/12/10 06:05:15;;;;;;;1.80;0.73;;;2.10;90.90;;;;;;6227225;28;20092;-79
2021/12/10 06:08:18;;;;;;;9.98;1.13;;;2.10;90.60;;;;;;6227597;28;20468;-80
2021/12/10 06:11:22;;;;;;;1.33;0.60;;;2.10;90.50;;;;;;6228182;28;20054;-80
2021/12/10 06:14:24;;;;;;;2.55;0.77;;;2.10;90.40;;;;;;6228188;28;20060;-79
2021/12/10 06:17:26;;;;;;;5.93;1.75;;;2.10;90.50;;;;;;6227579;28;20129;-78
2021/12/10 06:20:31;;;;;;;4.07;0.90;;;2.10;90.50;;;;;;6227255;28;20053;-78
2021/12/10 06:23:33;;;;;;;3.40;0.88;;;2.20;90.20;;;;;;6226414;28;20521;-79
2021/12/10 06:26:36;;;;;;;3.90;0.80;;;2.10;90.30;;;;;;6227296;28;20042;-79
2021/12/10 06:29:41;;;;;;;3.90;0.93;;;2.20;90.30;;;;;;6227359;28;20046;-79
2021/12/10 06:32:44;;;;;;;2.80;1.60;;;2.30;90.00;;;;;;6226793;28;20419;-79
2021/12/10 06:35:49;;;;;;;3.40;1.08;;;2.30;89.70;;;;;;6227084;28;20042;-78
2021/12/10 06:38:51;;;;;;;2.95;1.45;;;2.30;90.20;;;;;;6227027;28;20060;-78
2021/12/10 06:41:55;;;;;;;3.80;1.35;;;2.30;89.70;;;;;;6226686;28;20470;-81
2021/12/10 06:44:56;;;;;;;3.25;1.42;;;2.30;90.00;;;;;;6226916;28;20546;-79
2021/12/10 06:48:01;;;;;;;3.45;2.28;;;2.20;90.10;;;;;;6227266;28;20049;-78
2021/12/10 06:51:09;;;;;;;4.93;1.45;;;2.20;90.10;;;;;;6228061;28;20054;-79
2021/12/10 06:54:11;;;;;;;2.47;1.33;;;2.30;89.90;;;;;;6226796;28;20045;-80
2021/12/10 06:57:15;;;;;;;11.00;1.95;;;2.30;90.30;;;;;;6226342;28;20128;-79
2021/12/10 07:00:23;;;;;;;3.75;1.23;;;2.30;90.40;;;;;;6226125;28;20050;-80
2021/12/10 07:03:27;;;;;;;4.22;2.05;;;2.30;90.20;;;;;;6226740;28;20049;-79
2021/12/10 07:06:29;;;;;;;4.57;1.50;;;2.40;89.70;;;;;;6227378;28;20057;-78
2021/12/10 07:09:31;;;;;;;4.03;1.58;;;2.40;90.10;;;;;;6225959;28;20056;-79
2021/12/10 07:12:36;;;;;;;4.80;2.15;;;2.30;89.00;;;;;;6226084;28;20045;-80
2021/12/10 07:15:41;;;;;;;4.40;1.75;;;2.20;89.70;;;;;;6225233;28;20554;-79
2021/12/10 07:18:43;;;;;;;7.18;2.22;;;2.20;90.00;;;;;;6226509;28;20054;-80
2021/12/10 07:21:45;;;;;;;5.72;1.65;;;2.10;89.80;;;;;;6225517;28;20045;-79
2021/12/10 07:24:47;;;;;;;4.47;1.85;;;2.00;89.90;;;;;;6225030;28;20053;-79
2021/12/10 07:27:51;;;;;;;4.90;1.33;;;2.00;90.10;;;;;;6226038;28;20042;-81
2021/12/10 07:30:53;;;;;;;3.05;2.00;;;2.00;90.20;;;;;;6227050;28;20129;-79
2021/12/10 07:33:55;;;;;;;7.10;2.00;;;2.00;90.30;;;;;;6225851;28;20042;-79
2021/12/10 07:36:57;;;;;;;9.63;2.50;;;2.00;90.20;;;;;;6226580;28;20046;-79
2021/12/10 07:39:59;;;;;;;6.45;2.30;;;2.00;90.40;;;;;;6226026;28;20045;-79
2021/12/10 07:43:02;;;;;;;9.50;1.83;;;2.10;90.40;;;;;;6227081;28;20517;-80
2021/12/10 07:46:05;;;;;;;4.25;2.15;;;2.10;90.40;;;;;;6201926;28;20057;-79
2021/12/10 07:49:13;;;;;;;9.05;2.83;;;2.20;90.50;;;;;;6224983;28;20050;-78
2021/12/10 07:52:20;;;;;;;7.22;2.30;;;2.30;90.30;;;;;;6227907;28;20053;-78
2021/12/10 07:55:25;;;;;;;6.50;2.97;;;2.40;90.20;;;;;;6224548;28;20049;-79
2021/12/10 07:58:28;;;;;;;11.43;4.88;;;2.50;90.20;;;;;;6226159;28;20143;-79
2021/12/10 08:01:31;;;;;;;12.27;4.32;;;2.60;90.20;;;;;;6225654;28;20235;-79
2021/12/10 08:04:33;;;;;;;9.68;4.10;;;2.80;90.10;;;;;;6226476;28;20045;-78
2021/12/10 08:07:35;;;;;;;11.05;5.35;;;3.00;89.90;;;;;;6219797;28;20157;-78
2021/12/10 08:10:39;;;;;;;8.93;5.60;;;3.10;89.50;;;;;;6215538;28;20415;-78
2021/12/10 08:13:42;;;;;;;10.57;5.25;;;3.20;89.40;;;;;;6223268;28;20105;-78
2021/12/10 08:16:44;;;;;;;12.60;5.75;;;3.40;89.10;;;;;;6222066;28;20503;-78
2021/12/10 08:19:46;;;;;;;15.48;6.38;;;3.60;88.70;;;;;;6218713;28;20173;-78
2021/12/10 08:22:48;;;;;;;14.20;6.18;;;3.70;88.60;;;;;;6223666;28;20168;-79
2021/12/10 08:25:51;;;;;;;11.38;6.57;;;3.70;88.30;;;;;;6221993;28;20177;-78
2021/12/10 08:28:54;;;;;;;8.65;4.18;;;3.80;88.20;;;;;;6222456;28;20457;-78
2021/12/10 08:31:56;;;;;;;6.00;2.55;;;3.90;87.70;;;;;;6222488;28;20046;-78
2021/12/10 08:34:59;;;;;;;5.63;3.10;;;3.90;84.90;;;;;;6226488;28;20053;-78
2021/12/10 08:38:02;;;;;;;5.60;3.17;;;3.90;86.80;;;;;;6225800;28;20519;-80
2021/12/10 08:41:08;;;;;;;3.70;1.50;;;4.00;86.80;;;;;;6222729;28;20077;-78
2021/12/10 08:44:12;;;;;;;8.25;1.95;;;4.10;85.00;;;;;;6222915;28;20065;-79
2021/12/10 08:47:15;;;;;;;4.25;1.35;;;4.20;83.40;;;;;;6219952;28;20058;-79
2021/12/10 08:50:22;;;;;;;4.22;1.95;;;4.30;82.80;;;;;;6222261;28;20076;-79
2021/12/10 08:53:24;;;;;;;2.35;0.85;;;4.50;82.50;;;;;;6222288;28;20045;-78
2021/12/10 08:56:26;;;;;;;5.68;1.30;;;4.60;80.80;;;;;;6221715;28;20503;-78
2021/12/10 08:59:29;;;;;;;6.32;2.22;;;4.60;79.40;;;;;;6223475;28;20183;-78
2021/12/10 09:02:31;;;;;;;5.25;1.40;;;4.60;79.90;;;;;;6223435;28;20509;-77
2021/12/10 09:05:34;;;;;;;3.53;1.10;;;4.60;79.30;;;;;;6222492;28;20042;-78
2021/12/10 09:08:37;;;;;;;8.55;1.30;;;4.60;80.10;;;;;;6222454;28;20132;-79
2021/12/10 09:11:41;;;;;;;8.43;1.17;;;4.60;80.70;;;;;;6204003;28;20401;-78
2021/12/10 09:14:48;;;;;;;9.02;1.90;;;4.70;79.90;;;;;;6197509;28;20054;-78
2021/12/10 09:17:53;;;;;;;7.10;1.60;;;4.70;80.50;;;;;;6207195;28;20046;-77
2021/12/10 09:21:01;;;;;;;7.63;1.60;;;4.70;80.80;;;;;;6221783;28;20201;-78
2021/12/10 09:24:06;;;;;;;6.25;2.97;;;4.80;81.30;;;;;;6223134;28;20135;-78
2021/12/10 09:27:09;;;;;;;5.45;2.40;;;4.90;81.70;;;;;;6222907;28;20191;-78
2021/12/10 09:30:15;;;;;;;7.10;1.83;;;5.10;81.80;;;;;;6223210;28;20515;-79
2021/12/10 09:33:19;;;;;;;3.13;1.38;;;5.10;81.50;;;;;;6223567;28;20064;-79
2021/12/10 09:36:21;;;;;;;5.15;1.70;;;5.20;81.40;;;;;;6222937;28;20080;-78
2021/12/10 09:39:24;;;;;;;6.47;2.42;;;5.20;81.80;;;;;;6222365;28;20050;-79
2021/12/10 09:42:26;;;;;;;8.80;1.92;;;5.20;82.00;;;;;;6223364;28;20491;-79
2021/12/10 09:45:32;;;;;;;3.97;1.80;;;5.40;82.50;;;;;;6224657;28;20046;-79
2021/12/10 09:48:34;;;;;;;20.05;3.47;;;5.50;82.30;;;;;;6227835;28;20077;-78
2021/12/10 09:51:42;;;;;;;6.75;2.45;;;5.60;82.10;;;;;;6228122;28;20056;-78
2021/12/10 09:54:44;;;;;;;4.93;2.88;;;5.60;81.80;;;;;;6230966;28;20143;-81
2021/12/10 09:57:48;;;;;;;10.02;3.13;;;5.60;81.90;;;;;;6227584;28;20507;-79
2021/12/10 10:00:56;;;;;;;5.95;2.33;;;5.60;82.10;;;;;;6227786;28;20634;-80
2021/12/10 10:04:01;;;;;;;;;;;5.60;82.20;;;;;;6229062;28;20507;-79
2021/12/10 10:07:08;;;;;;;4.63;2.92;;;5.60;82.50;;;;;;6250163;22;20547;-83
2021/12/10 10:10:13;;;;;;;12.90;3.47;;;5.70;82.80;;;;;;6253911;28;20049;-82
2021/12/10 10:13:16;;;;;;;5.57;2.00;;;5.70;83.00;;;;;;6254374;28;20046;-84
2021/12/10 10:16:20;;;;;;;9.30;2.22;;;5.70;82.90;;;;;;6256175;28;20545;-84
2021/12/10 10:19:23;;;;;;;6.07;3.20;;;5.80;82.80;;;;;;6254691;28;20053;-83
2021/12/10 10:22:29;;;;;;;7.32;2.63;;;5.80;83.00;;;;;;6254943;28;20077;-84
2021/12/10 10:25:32;;;;;;;6.25;2.53;;;5.90;83.10;;;;;;6254753;28;20577;-83
2021/12/10 10:28:34;;;;;;;9.93;2.78;;;5.90;83.50;;;;;;6253798;28;20141;-83
2021/12/10 10:31:40;;;;;;;7.65;3.20;;;5.90;83.60;;;;;;6253723;28;20056;-83
2021/12/10 10:34:45;;;;;;;7.20;2.53;;;6.00;83.70;;;;;;6254347;28;20045;-81
2021/12/10 10:37:47;;;;;;;6.95;2.63;;;6.00;83.70;;;;;;6271379;28;20061;-81
2021/12/10 10:40:54;;;;;;;13.35;2.95;;;6.10;83.80;;;;;;6266464;28;20148;-83
2021/12/10 10:43:56;;;;;;;7.20;2.70;;;6.10;84.00;;;;;;6257265;28;20045;-84
2021/12/10 10:47:01;;;;;;;10.85;3.10;;;6.10;84.10;;;;;;6256698;28;20050;-84
2021/12/10 10:50:11;;;;;;;7.03;2.58;;;6.20;84.50;;;;;;6255105;28;20049;-82
2021/12/10 10:53:15;;;;;;;4.88;2.63;;;6.20;84.60;;;;;;6254406;28;20053;-80
2021/12/10 10:56:20;;;;;;;10.15;2.58;;;6.30;84.60;;;;;;6253489;28;20130;-81
2021/12/10 10:59:26;;;;;;;5.88;2.42;;;6.30;84.40;;;;;;6254326;28;20050;-82
2021/12/10 11:02:48;;;;;;;5.45;2.42;;;6.40;84.50;;;;;;6254484;28;20054;-81
2021/12/10 11:05:55;;;;;;;11.32;2.70;;;6.40;84.20;;;;;;6252972;28;20060;-81
2021/12/10 11:09:08;;;;;;;5.88;2.90;;;6.40;84.30;;;;;;6252321;28;20053;-83
2021/12/10 11:12:20;;;;;;;6.70;2.60;;;6.50;84.40;;;;;;6246807;28;20053;-81
2021/12/10 11:15:22;;;;;;;6.75;2.92;;;6.50;84.70;;;;;;6242699;28;20055;-83
2021/12/10 11:18:25;;;;;;;6.40;2.80;;;6.50;84.20;;;;;;6249692;28;20060;-83
2021/12/10 11:21:41;;;;;;;7.10;2.65;;;6.50;84.30;;;;;;6247485;28;20049;-81
2021/12/10 11:24:46;;;;;;;5.90;3.13;;;6.50;84.30;;;;;;6252491;28;20076;-81
2021/12/10 11:27:48;;;;;;;7.65;3.90;;;6.50;84.40;;;;;;6253055;28;20053;-81
2021/12/10 11:30:56;;;;;;;7.43;3.30;;;6.50;84.70;;;;;;6251903;28;20546;-83
2021/12/10 11:33:59;;;;;;;6.75;3.00;;;6.40;84.90;;;;;;6252403;28;20049;-83
2021/12/10 11:37:01;;;;;;;6.28;3.05;;;6.40;85.00;;;;;;6252020;28;20450;-83
2021/12/10 11:40:04;;;;;;;5.85;2.95;;;6.30;85.10;;;;;;6252499;28;20045;-82
2021/12/10 11:43:19;;;;;;;8.43;3.72;;;6.30;85.50;;;;;;6252002;28;20135;-80
2021/12/10 11:46:44;;;;;;;8.80;3.83;;;6.20;85.80;;;;;;6252478;28;20053;-80
2021/12/10 11:49:47;;;;;;;12.40;7.53;;;6.20;86.20;;;;;;6249051;28;20521;-81
2021/12/10 11:53:04;;;;;;;8.95;4.07;;;6.20;86.60;;;;;;6251076;28;20049;-81
2021/12/10 11:56:11;;;;;;;5.53;2.95;;;6.20;86.60;;;;;;6251375;28;20045;-83
2021/12/10 11:59:15;;;;;;;6.18;2.50;;;6.20;86.80;;;;;;6252264;28;20409;-84
2021/12/10 12:02:21;;;;;;;4.57;2.25;;;6.20;86.60;;;;;;6252333;28;20053;-84
2021/12/10 12:05:26;;;;;;;9.48;3.33;;;6.30;90.70;;;;;;6251889;28;20455;-82
2021/12/10 12:08:31;;;;;;;10.60;5.00;;;6.20;92.00;;;;;;6251690;28;20056;-85
2021/12/10 12:11:32;;;;;;;15.30;4.72;;;6.10;92.50;;;;;;6251362;28;20054;-84
2021/12/10 12:14:35;;;;;;;7.60;3.08;;;6.10;92.80;;;;;;6242794;28;20052;-81
2021/12/10 12:17:42;;;;;;;9.63;3.40;;;6.10;93.20;;;;;;6231559;28;20446;-85
2021/12/10 12:20:47;;;;;;;7.88;2.88;;;6.10;93.60;;;;;;6249853;28;20517;-80
2021/12/10 12:27:15;;;;;;;4.38;2.13;;;6.10;93.60;;;;;;6251461;28;20049;-82
2021/12/10 12:30:18;;;;;;;3.78;2.00;;;6.20;93.70;;;;;;6250362;28;20053;-82
2021/12/10 12:33:21;;;;;;;2.85;1.15;;;6.20;93.60;;;;;;6250053;28;20103;-83
2021/12/10 12:36:26;;;;;;;2.30;1.27;;;6.20;93.60;;;;;;6251209;28;20063;-83
2021/12/10 12:39:32;;;;;;;4.47;1.20;;;6.20;93.60;;;;;;6251175;28;20057;-83
2021/12/10 12:42:36;;;;;;;3.03;1.33;;;6.20;93.60;;;;;;6251895;28;20053;-84
2021/12/10 12:45:39;;;;;;;4.28;1.75;;;6.20;93.50;;;;;;6251072;28;20088;-84
2021/12/10 12:48:58;;;;;;;2.28;1.45;;;6.30;93.70;;;;;;6251175;28;20069;-83
2021/12/10 12:52:08;;;;;;;4.00;1.42;;;6.30;93.70;;;;;;6254954;28;20045;-85
2021/12/10 12:55:32;;;;;;;5.30;1.90;;;6.30;93.60;;;;;;6252287;28;20057;-82
2021/12/10 12:58:40;;;;;;;4.78;1.33;;;6.40;93.60;;;;;;6250326;28;20042;-83
2021/12/10 13:01:42;;;;;;;;;;;6.40;93.50;;;;;;6252191;28;20060;-80
2021/12/10 13:04:48;;;;;;;2.50;1.63;;;6.40;93.10;;;;;;6257758;28;19943;-82
2021/12/10 13:08:05;;;;;;;7.55;2.28;;;6.40;93.10;;;;;;6254879;28;20320;-81
2021/12/10 13:11:16;;;;;;;4.93;2.05;;;6.40;93.10;;;;;;6230367;28;20128;-84
2021/12/10 13:14:21;;;;;;;8.20;2.42;;;6.40;92.90;;;;;;6242732;28;20049;-82
2021/12/10 13:17:25;;;;;;;13.18;4.72;;;6.30;92.50;;;;;;6244789;28;20041;-82
2021/12/10 13:20:32;;;;;;;7.78;3.40;;;6.20;92.60;;;;;;6253104;28;20084;-84
2021/12/10 13:23:35;;;;;;;8.45;3.15;;;6.20;92.80;;;;;;6256244;28;20481;-83
2021/12/10 13:26:37;;;;;;;13.93;3.60;;;6.20;93.00;;;;;;6256401;28;20053;-81
2021/12/10 13:29:39;;;;;;;5.28;2.95;;;6.20;92.80;;;;;;6247299;28;20097;-82
2021/12/10 13:32:41;;;;;;;5.57;3.00;;;6.10;92.10;;;;;;6254987;28;20637;-81
2021/12/10 13:35:43;;;;;;;9.48;2.95;;;6.00;91.90;;;;;;6255907;28;20041;-80
2021/12/10 13:38:51;;;;;;;6.93;3.25;;;5.90;92.70;;;;;;6256589;28;20128;-81
2021/12/10 13:41:53;;;;;;;9.80;3.55;;;5.80;92.20;;;;;;6249155;28;20048;-82
2021/12/10 13:44:56;;;;;;;9.38;5.25;;;5.70;92.00;;;;;;6253961;28;20045;-80
2021/12/10 13:48:03;;;;;;;11.75;4.53;;;5.60;91.70;;;;;;6255861;28;20124;-80
2021/12/10 13:51:07;;;;;;;7.45;4.82;;;5.50;92.00;;;;;;6256265;28;20053;-82
2021/12/10 13:54:12;;;;;;;13.30;6.05;;;5.50;92.00;;;;;;6256218;28;20175;-82
2021/12/10 13:57:14;;;;;;;14.63;5.55;;;5.40;92.00;;;;;;6255721;28;20503;-82
2021/12/10 14:00:17;;;;;;;9.43;6.40;;;5.40;92.30;;;;;;6256572;28;20503;-81
2021/12/10 14:03:42;;;;;;;10.63;5.95;;;5.40;92.30;;;;;;6255486;28;20419;-82
2021/12/10 14:06:48;;;;;;;9.25;6.03;;;5.40;92.30;;;;;;6256542;28;20048;-81
2021/12/10 14:09:53;;;;;;;13.68;6.40;;;5.40;92.60;;;;;;6257695;28;20076;-81
2021/12/10 14:12:57;;;;;;;11.90;6.13;;;5.40;92.60;;;;;;6267335;28;20042;-82
2021/12/10 14:16:05;;;;;;;12.65;7.03;;;5.40;92.20;;;;;;6267833;28;20044;-81
2021/12/10 14:19:07;;;;;;;22.60;18.02;;;5.30;92.30;;;;;;6257158;28;20053;-81
2021/12/10 14:22:12;;;;;;;18.65;12.70;;;5.30;92.50;;;;;;6258812;28;20503;-80
2021/12/10 14:25:19;;;;;;;14.43;8.70;;;5.30;92.80;;;;;;6269762;28;20124;-82
2021/12/10 14:28:29;;;;;;;18.85;10.40;;;5.40;92.90;;;;;;6254981;28;20120;-82
2021/12/10 14:31:37;;;;;;;17.20;8.80;;;5.40;92.80;;;;;;6253653;28;20053;-81
2021/12/10 14:34:39;;;;;;;;;;;5.40;92.70;;;;;;6254321;28;20060;-80
2021/12/10 14:37:59;;;;;;;12.70;6.20;;;5.40;92.80;;;;;;6253523;28;19977;-82
2021/12/10 14:41:08;;;;;;;16.73;8.55;;;5.50;92.80;;;;;;6253276;28;20049;-82
2021/12/10 14:44:17;;;;;;;21.35;13.45;;;5.50;92.90;;;;;;6252679;28;20145;-81
2021/12/10 14:47:20;;;;;;;31.98;16.73;;;5.50;92.90;;;;;;6253112;28;20673;-82
2021/12/10 14:50:22;;;;;;;11.23;5.90;;;5.50;93.00;;;;;;6254171;28;20474;-81
2021/12/10 14:53:27;;;;;;;9.13;5.35;;;5.50;92.90;;;;;;6254310;28;20503;-82
2021/12/10 14:56:35;;;;;;;11.18;5.45;;;5.50;93.00;;;;;;6252115;28;20519;-83
2021/12/10 14:59:39;;;;;;;23.02;12.27;;;5.60;93.20;;;;;;6252969;28;20414;-83
2021/12/10 15:02:41;;;;;;;5.95;3.15;;;5.60;93.10;;;;;;6252931;28;20050;-83
2021/12/10 15:05:49;;;;;;;7.10;4.45;;;5.50;93.20;;;;;;6251902;28;20128;-81
2021/12/10 15:08:56;;;;;;;13.02;6.65;;;5.50;93.30;;;;;;6255200;28;20059;-85
2021/12/10 15:12:00;;;;;;;5.68;3.25;;;5.40;93.50;;;;;;6254580;28;20043;-82
2021/12/10 15:15:02;;;;;;;4.72;2.55;;;5.50;93.40;;;;;;6254114;28;20530;-82
2021/12/10 15:18:04;;;;;;;4.90;2.65;;;5.50;93.50;;;;;;6252992;28;20050;-83
2021/12/10 15:21:37;;;;;;;4.28;2.42;;;5.40;93.60;;;;;;6255915;28;20064;-81
2021/12/10 15:24:42;;;;;;;5.75;3.05;;;5.40;93.40;;;;;;6246321;28;20529;-80
2021/12/10 15:27:45;;;;;;;4.65;2.35;;;5.40;93.50;;;;;;6253546;28;20053;-80
2021/12/10 15:30:47;;;;;;;5.32;2.95;;;5.50;93.60;;;;;;6252221;28;20053;-83
2021/12/10 15:33:53;;;;;;;6.30;2.60;;;5.50;93.60;;;;;;6252304;28;20053;-80
2021/12/10 15:36:58;;;;;;;3.97;2.53;;;5.60;93.60;;;;;;6253845;28;20518;-83
2021/12/10 15:40:09;;;;;;;3.33;1.73;;;5.50;93.60;;;;;;6252244;28;20411;-81
2021/12/10 15:43:16;;;;;;;3.92;1.88;;;5.60;93.60;;;;;;6252789;28;20045;-82
2021/12/10 15:46:23;;;;;;;8.02;2.85;;;5.60;93.60;;;;;;6251325;28;20046;-83
2021/12/10 15:49:30;;;;;;;3.22;2.05;;;5.70;93.60;;;;;;6252916;28;20091;-85
2021/12/10 15:52:32;;;;;;;5.70;2.70;;;5.70;94.10;;;;;;6252793;28;20698;-84
2021/12/10 15:55:35;;;;;;;5.70;1.85;;;5.60;94.30;;;;;;6254577;28;20125;-85
2021/12/10 15:58:39;;;;;;;6.80;2.28;;;5.70;94.70;;;;;;6253729;28;20041;-83
2021/12/10 16:01:44;;;;;;;5.80;3.22;;;5.70;94.60;;;;;;6251776;28;20525;-82
2021/12/10 16:04:49;;;;;;;3.15;1.92;;;5.70;94.90;;;;;;6251112;28;20037;-83
2021/12/10 16:07:54;;;;;;;3.58;2.10;;;5.70;94.80;;;;;;6249784;28;20049;-81
2021/12/10 16:10:56;;;;;;;4.50;2.20;;;5.70;94.60;;;;;;6250402;28;20059;-82
2021/12/10 16:13:59;;;;;;;5.05;2.25;;;5.70;94.90;;;;;;6249839;28;20128;-81
2021/12/10 16:17:04;;;;;;;3.63;1.77;;;5.70;95.00;;;;;;6249529;28;20146;-81
2021/12/10 16:20:13;;;;;;;3.72;2.20;;;5.80;95.00;;;;;;6243449;28;20056;-81
2021/12/10 16:23:18;;;;;;;5.32;1.92;;;5.80;94.90;;;;;;6252483;28;20507;-81
2021/12/10 16:26:23;;;;;;;7.68;3.70;;;5.80;95.00;;;;;;6250634;28;20394;-80